sensor_id;sensor_type;location;lat;lon;timestamp;P1;durP1;ratioP1;P2;durP2;ratioP2
38302;SDS011;24103;42.454;27.400;2023-07-20T00:01:14;2.70;;;2.60;;
38302;SDS011;24103;42.454;27.400;2023-07-20T00:03:40;4.47;;;3.10;;
38302;SDS011;24103;42.454;27.400;2023-07-20T00:06:05;3.42;;;3.13;;
38302;SDS011;24103;42.454;27.400;2023-07-20T00:08:31;2.47;;;2.28;;
38302;SDS011;24103;42.454;27.400;2023-07-20T00:10:57;2.28;;;2.17;;
38302;SDS011;24103;42.454;27.400;2023-07-20T00:13:22;3.97;;;3.20;;
38302;SDS011;24103;42.454;27.400;2023-07-20T00:15:48;5.18;;;3.38;;
38302;SDS011;24103;42.454;27.400;2023-07-20T00:18:13;3.95;;;3.65;;
38302;SDS011;24103;42.454;27.400;2023-07-20T00:20:39;4.03;;;3.63;;
38302;SDS011;24103;42.454;27.400;2023-07-20T00:23:05;3.85;;;3.58;;
38302;SDS011;24103;42.454;27.400;2023-07-20T00:25:32;3.85;;;3.53;;
38302;SDS011;24103;42.454;27.400;2023-07-20T00:27:58;5.32;;;3.63;;
38302;SDS011;24103;42.454;27.400;2023-07-20T00:30:24;4.50;;;3.63;;
38302;SDS011;24103;42.454;27.400;2023-07-20T00:32:49;4.60;;;3.90;;
38302;SDS011;24103;42.454;27.400;2023-07-20T00:35:15;4.03;;;3.55;;
38302;SDS011;24103;42.454;27.400;2023-07-20T00:37:40;4.43;;;3.90;;
38302;SDS011;24103;42.454;27.400;2023-07-20T00:40:06;5.53;;;4.07;;
38302;SDS011;24103;42.454;27.400;2023-07-20T00:42:34;6.07;;;3.97;;
38302;SDS011;24103;42.454;27.400;2023-07-20T00:45:00;5.45;;;3.55;;
38302;SDS011;24103;42.454;27.400;2023-07-20T00:47:26;4.15;;;3.83;;
38302;SDS011;24103;42.454;27.400;2023-07-20T00:49:52;5.10;;;3.90;;
38302;SDS011;24103;42.454;27.400;2023-07-20T00:52:18;4.78;;;3.38;;
38302;SDS011;24103;42.454;27.400;2023-07-20T00:54:46;4.50;;;3.65;;
38302;SDS011;24103;42.454;27.400;2023-07-20T00:57:15;4.22;;;3.30;;
38302;SDS011;24103;42.454;27.400;2023-07-20T00:59:42;4.18;;;3.17;;
38302;SDS011;24103;42.454;27.400;2023-07-20T01:02:08;3.50;;;3.20;;
38302;SDS011;24103;42.454;27.400;2023-07-20T01:04:34;4.07;;;3.67;;
38302;SDS011;24103;42.454;27.400;2023-07-20T01:07:01;3.75;;;3.30;;
38302;SDS011;24103;42.454;27.400;2023-07-20T01:09:47;3.72;;;3.40;;
38302;SDS011;24103;42.454;27.400;2023-07-20T01:15:07;4.47;;;3.67;;
38302;SDS011;24103;42.454;27.400;2023-07-20T01:17:33;3.47;;;3.17;;
38302;SDS011;24103;42.454;27.400;2023-07-20T01:19:59;3.20;;;3.00;;
38302;SDS011;24103;42.454;27.400;2023-07-20T01:25:18;3.92;;;3.35;;
38302;SDS011;24103;42.454;27.400;2023-07-20T01:27:51;4.07;;;3.30;;
38302;SDS011;24103;42.454;27.400;2023-07-20T01:33:25;4.68;;;3.25;;
38302;SDS011;24103;42.454;27.400;2023-07-20T01:35:53;3.97;;;3.20;;
38302;SDS011;24103;42.454;27.400;2023-07-20T01:38:21;4.53;;;3.63;;
38302;SDS011;24103;42.454;27.400;2023-07-20T01:40:48;6.68;;;3.42;;
38302;SDS011;24103;42.454;27.400;2023-07-20T01:43:14;3.85;;;3.55;;
38302;SDS011;24103;42.454;27.400;2023-07-20T01:45:41;6.22;;;3.20;;
38302;SDS011;24103;42.454;27.400;2023-07-20T01:48:06;6.22;;;3.50;;
38302;SDS011;24103;42.454;27.400;2023-07-20T01:50:32;4.32;;;3.38;;
38302;SDS011;24103;42.454;27.400;2023-07-20T01:52:59;3.72;;;3.42;;
38302;SDS011;24103;42.454;27.400;2023-07-20T01:55:25;4.30;;;3.30;;
38302;SDS011;24103;42.454;27.400;2023-07-20T01:57:50;3.47;;;3.17;;
38302;SDS011;24103;42.454;27.400;2023-07-20T02:00:16;3.50;;;3.08;;
38302;SDS011;24103;42.454;27.400;2023-07-20T02:02:44;5.93;;;4.03;;
38302;SDS011;24103;42.454;27.400;2023-07-20T02:05:09;3.67;;;3.38;;
38302;SDS011;24103;42.454;27.400;2023-07-20T02:07:35;4.20;;;3.03;;
38302;SDS011;24103;42.454;27.400;2023-07-20T02:10:00;7.25;;;3.50;;
38302;SDS011;24103;42.454;27.400;2023-07-20T02:12:26;4.07;;;3.00;;
38302;SDS011;24103;42.454;27.400;2023-07-20T02:14:51;6.18;;;2.67;;
38302;SDS011;24103;42.454;27.400;2023-07-20T02:17:18;6.05;;;2.80;;
38302;SDS011;24103;42.454;27.400;2023-07-20T02:19:43;4.13;;;3.15;;
38302;SDS011;24103;42.454;27.400;2023-07-20T02:22:09;7.47;;;2.90;;
38302;SDS011;24103;42.454;27.400;2023-07-20T02:24:34;7.95;;;3.60;;
38302;SDS011;24103;42.454;27.400;2023-07-20T02:27:00;9.18;;;3.17;;
38302;SDS011;24103;42.454;27.400;2023-07-20T02:29:25;7.43;;;3.40;;
38302;SDS011;24103;42.454;27.400;2023-07-20T02:31:51;10.32;;;3.33;;
38302;SDS011;24103;42.454;27.400;2023-07-20T02:34:16;5.35;;;2.90;;
38302;SDS011;24103;42.454;27.400;2023-07-20T02:36:42;8.02;;;3.67;;
38302;SDS011;24103;42.454;27.400;2023-07-20T02:39:08;5.15;;;3.17;;
38302;SDS011;24103;42.454;27.400;2023-07-20T02:41:33;3.05;;;2.85;;
38302;SDS011;24103;42.454;27.400;2023-07-20T02:43:59;3.95;;;3.35;;
38302;SDS011;24103;42.454;27.400;2023-07-20T02:46:26;3.42;;;3.13;;
38302;SDS011;24103;42.454;27.400;2023-07-20T02:48:51;6.70;;;3.00;;
38302;SDS011;24103;42.454;27.400;2023-07-20T02:51:17;6.18;;;2.80;;
38302;SDS011;24103;42.454;27.400;2023-07-20T02:53:42;5.90;;;3.40;;
38302;SDS011;24103;42.454;27.400;2023-07-20T02:56:08;5.68;;;3.50;;
38302;SDS011;24103;42.454;27.400;2023-07-20T02:58:34;3.78;;;3.00;;
38302;SDS011;24103;42.454;27.400;2023-07-20T03:01:02;5.60;;;3.70;;
38302;SDS011;24103;42.454;27.400;2023-07-20T03:03:28;6.32;;;3.15;;
38302;SDS011;24103;42.454;27.400;2023-07-20T03:05:53;3.47;;;3.10;;
38302;SDS011;24103;42.454;27.400;2023-07-20T03:08:20;3.20;;;3.00;;
38302;SDS011;24103;42.454;27.400;2023-07-20T03:10:46;3.83;;;3.05;;
38302;SDS011;24103;42.454;27.400;2023-07-20T03:13:12;3.30;;;2.88;;
38302;SDS011;24103;42.454;27.400;2023-07-20T03:15:39;3.63;;;3.03;;
38302;SDS011;24103;42.454;27.400;2023-07-20T03:18:04;9.63;;;3.63;;
38302;SDS011;24103;42.454;27.400;2023-07-20T03:20:30;8.75;;;4.18;;
38302;SDS011;24103;42.454;27.400;2023-07-20T03:22:56;5.90;;;3.25;;
38302;SDS011;24103;42.454;27.400;2023-07-20T03:25:22;9.52;;;3.72;;
38302;SDS011;24103;42.454;27.400;2023-07-20T03:27:47;4.68;;;3.33;;
38302;SDS011;24103;42.454;27.400;2023-07-20T03:30:13;4.15;;;2.97;;
38302;SDS011;24103;42.454;27.400;2023-07-20T03:32:39;4.47;;;3.38;;
38302;SDS011;24103;42.454;27.400;2023-07-20T03:35:04;4.43;;;2.95;;
38302;SDS011;24103;42.454;27.400;2023-07-20T03:37:30;5.40;;;2.70;;
38302;SDS011;24103;42.454;27.400;2023-07-20T03:39:56;4.55;;;3.10;;
38302;SDS011;24103;42.454;27.400;2023-07-20T03:42:21;4.32;;;2.90;;
38302;SDS011;24103;42.454;27.400;2023-07-20T03:44:47;7.82;;;3.40;;
38302;SDS011;24103;42.454;27.400;2023-07-20T03:47:13;4.13;;;2.63;;
38302;SDS011;24103;42.454;27.400;2023-07-20T03:49:38;4.95;;;2.47;;
38302;SDS011;24103;42.454;27.400;2023-07-20T03:52:04;4.15;;;2.70;;
38302;SDS011;24103;42.454;27.400;2023-07-20T03:54:30;3.03;;;2.53;;
38302;SDS011;24103;42.454;27.400;2023-07-20T03:56:55;4.70;;;2.60;;
38302;SDS011;24103;42.454;27.400;2023-07-20T03:59:21;4.43;;;2.85;;
38302;SDS011;24103;42.454;27.400;2023-07-20T04:01:46;5.00;;;2.55;;
38302;SDS011;24103;42.454;27.400;2023-07-20T04:04:13;5.30;;;3.33;;
38302;SDS011;24103;42.454;27.400;2023-07-20T04:06:41;3.17;;;2.75;;
38302;SDS011;24103;42.454;27.400;2023-07-20T04:09:09;6.20;;;2.75;;
38302;SDS011;24103;42.454;27.400;2023-07-20T04:11:35;6.50;;;2.42;;
38302;SDS011;24103;42.454;27.400;2023-07-20T04:14:00;3.28;;;2.28;;
38302;SDS011;24103;42.454;27.400;2023-07-20T04:16:26;2.97;;;2.20;;
38302;SDS011;24103;42.454;27.400;2023-07-20T04:18:52;7.32;;;2.67;;
38302;SDS011;24103;42.454;27.400;2023-07-20T04:21:20;7.32;;;2.75;;
38302;SDS011;24103;42.454;27.400;2023-07-20T04:23:45;3.67;;;2.13;;
38302;SDS011;24103;42.454;27.400;2023-07-20T04:26:11;4.32;;;2.30;;
38302;SDS011;24103;42.454;27.400;2023-07-20T04:28:37;4.70;;;1.90;;
38302;SDS011;24103;42.454;27.400;2023-07-20T04:31:15;6.22;;;2.65;;
38302;SDS011;24103;42.454;27.400;2023-07-20T04:33:41;5.00;;;2.25;;
38302;SDS011;24103;42.454;27.400;2023-07-20T04:36:08;4.18;;;2.13;;
38302;SDS011;24103;42.454;27.400;2023-07-20T04:38:34;4.57;;;2.20;;
38302;SDS011;24103;42.454;27.400;2023-07-20T04:40:59;3.83;;;2.33;;
38302;SDS011;24103;42.454;27.400;2023-07-20T04:43:25;4.88;;;2.35;;
38302;SDS011;24103;42.454;27.400;2023-07-20T04:45:52;2.45;;;2.13;;
38302;SDS011;24103;42.454;27.400;2023-07-20T04:48:17;4.20;;;2.30;;
38302;SDS011;24103;42.454;27.400;2023-07-20T04:50:44;6.15;;;2.33;;
38302;SDS011;24103;42.454;27.400;2023-07-20T04:53:11;4.38;;;2.78;;
38302;SDS011;24103;42.454;27.400;2023-07-20T04:55:37;6.18;;;2.70;;
38302;SDS011;24103;42.454;27.400;2023-07-20T04:58:04;5.38;;;2.47;;
38302;SDS011;24103;42.454;27.400;2023-07-20T05:00:30;6.05;;;2.35;;
38302;SDS011;24103;42.454;27.400;2023-07-20T05:02:57;8.77;;;2.65;;
38302;SDS011;24103;42.454;27.400;2023-07-20T05:05:22;5.28;;;2.33;;
38302;SDS011;24103;42.454;27.400;2023-07-20T05:07:48;3.85;;;1.77;;
38302;SDS011;24103;42.454;27.400;2023-07-20T05:10:13;4.22;;;1.88;;
38302;SDS011;24103;42.454;27.400;2023-07-20T05:12:39;5.80;;;1.85;;
38302;SDS011;24103;42.454;27.400;2023-07-20T05:15:04;3.53;;;2.03;;
38302;SDS011;24103;42.454;27.400;2023-07-20T05:17:30;4.45;;;2.17;;
38302;SDS011;24103;42.454;27.400;2023-07-20T05:19:56;3.70;;;2.33;;
38302;SDS011;24103;42.454;27.400;2023-07-20T05:22:21;5.40;;;2.17;;
38302;SDS011;24103;42.454;27.400;2023-07-20T05:24:47;4.78;;;2.35;;
38302;SDS011;24103;42.454;27.400;2023-07-20T05:27:12;5.32;;;2.88;;
38302;SDS011;24103;42.454;27.400;2023-07-20T05:29:42;5.63;;;2.70;;
38302;SDS011;24103;42.454;27.400;2023-07-20T05:32:08;6.80;;;2.30;;
38302;SDS011;24103;42.454;27.400;2023-07-20T05:34:35;11.90;;;2.50;;
38302;SDS011;24103;42.454;27.400;2023-07-20T05:37:10;13.55;;;2.95;;
38302;SDS011;24103;42.454;27.400;2023-07-20T05:39:35;15.57;;;3.70;;
38302;SDS011;24103;42.454;27.400;2023-07-20T05:42:01;10.95;;;2.92;;
38302;SDS011;24103;42.454;27.400;2023-07-20T05:44:26;6.65;;;2.55;;
38302;SDS011;24103;42.454;27.400;2023-07-20T05:46:52;6.70;;;2.28;;
38302;SDS011;24103;42.454;27.400;2023-07-20T05:49:17;6.40;;;2.70;;
38302;SDS011;24103;42.454;27.400;2023-07-20T05:51:42;4.32;;;2.05;;
38302;SDS011;24103;42.454;27.400;2023-07-20T05:54:08;5.22;;;2.22;;
38302;SDS011;24103;42.454;27.400;2023-07-20T05:56:33;7.75;;;2.20;;
38302;SDS011;24103;42.454;27.400;2023-07-20T05:58:59;6.00;;;2.08;;
38302;SDS011;24103;42.454;27.400;2023-07-20T06:01:24;8.02;;;2.08;;
38302;SDS011;24103;42.454;27.400;2023-07-20T06:03:52;8.48;;;2.15;;
38302;SDS011;24103;42.454;27.400;2023-07-20T06:06:18;8.60;;;2.45;;
38302;SDS011;24103;42.454;27.400;2023-07-20T06:08:44;5.88;;;1.90;;
38302;SDS011;24103;42.454;27.400;2023-07-20T06:11:09;7.13;;;1.60;;
38302;SDS011;24103;42.454;27.400;2023-07-20T06:13:35;5.03;;;2.03;;
38302;SDS011;24103;42.454;27.400;2023-07-20T06:16:01;3.97;;;1.50;;
38302;SDS011;24103;42.454;27.400;2023-07-20T06:18:26;7.47;;;1.23;;
38302;SDS011;24103;42.454;27.400;2023-07-20T06:20:52;5.07;;;1.23;;
38302;SDS011;24103;42.454;27.400;2023-07-20T06:23:18;2.47;;;1.60;;
38302;SDS011;24103;42.454;27.400;2023-07-20T06:25:44;3.08;;;1.67;;
38302;SDS011;24103;42.454;27.400;2023-07-20T06:28:11;7.32;;;2.28;;
38302;SDS011;24103;42.454;27.400;2023-07-20T06:30:36;10.95;;;2.10;;
38302;SDS011;24103;42.454;27.400;2023-07-20T06:33:02;3.13;;;1.60;;
38302;SDS011;24103;42.454;27.400;2023-07-20T06:35:28;6.22;;;1.58;;
38302;SDS011;24103;42.454;27.400;2023-07-20T06:37:53;4.15;;;1.52;;
38302;SDS011;24103;42.454;27.400;2023-07-20T06:40:19;3.80;;;1.58;;
38302;SDS011;24103;42.454;27.400;2023-07-20T06:42:44;2.55;;;1.45;;
38302;SDS011;24103;42.454;27.400;2023-07-20T06:45:10;3.67;;;1.75;;
38302;SDS011;24103;42.454;27.400;2023-07-20T06:47:39;2.38;;;1.50;;
38302;SDS011;24103;42.454;27.400;2023-07-20T06:50:07;3.65;;;1.60;;
38302;SDS011;24103;42.454;27.400;2023-07-20T06:52:34;5.22;;;1.73;;
38302;SDS011;24103;42.454;27.400;2023-07-20T06:54:59;3.30;;;1.40;;
38302;SDS011;24103;42.454;27.400;2023-07-20T06:57:25;3.65;;;1.73;;
38302;SDS011;24103;42.454;27.400;2023-07-20T06:59:51;3.30;;;1.55;;
38302;SDS011;24103;42.454;27.400;2023-07-20T07:02:16;4.35;;;1.77;;
38302;SDS011;24103;42.454;27.400;2023-07-20T07:04:42;2.70;;;1.50;;
38302;SDS011;24103;42.454;27.400;2023-07-20T07:07:08;5.22;;;1.83;;
38302;SDS011;24103;42.454;27.400;2023-07-20T07:09:34;3.72;;;1.40;;
38302;SDS011;24103;42.454;27.400;2023-07-20T07:12:00;4.80;;;1.65;;
38302;SDS011;24103;42.454;27.400;2023-07-20T07:14:26;1.70;;;1.40;;
38302;SDS011;24103;42.454;27.400;2023-07-20T07:16:51;5.60;;;1.60;;
38302;SDS011;24103;42.454;27.400;2023-07-20T07:19:17;2.70;;;1.88;;
38302;SDS011;24103;42.454;27.400;2023-07-20T07:21:42;5.03;;;1.92;;
38302;SDS011;24103;42.454;27.400;2023-07-20T07:24:08;7.95;;;2.33;;
38302;SDS011;24103;42.454;27.400;2023-07-20T07:26:35;5.75;;;1.77;;
38302;SDS011;24103;42.454;27.400;2023-07-20T07:29:01;4.85;;;2.05;;
38302;SDS011;24103;42.454;27.400;2023-07-20T07:31:28;5.25;;;1.60;;
38302;SDS011;24103;42.454;27.400;2023-07-20T07:33:54;3.35;;;1.75;;
38302;SDS011;24103;42.454;27.400;2023-07-20T07:36:20;4.18;;;1.30;;
38302;SDS011;24103;42.454;27.400;2023-07-20T07:38:45;5.85;;;1.80;;
38302;SDS011;24103;42.454;27.400;2023-07-20T07:41:11;2.63;;;1.45;;
38302;SDS011;24103;42.454;27.400;2023-07-20T07:43:36;3.63;;;1.30;;
38302;SDS011;24103;42.454;27.400;2023-07-20T07:46:03;5.40;;;1.92;;
38302;SDS011;24103;42.454;27.400;2023-07-20T07:48:29;5.03;;;1.90;;
38302;SDS011;24103;42.454;27.400;2023-07-20T07:50:54;6.93;;;2.20;;
38302;SDS011;24103;42.454;27.400;2023-07-20T07:53:20;6.40;;;1.83;;
38302;SDS011;24103;42.454;27.400;2023-07-20T07:55:48;9.90;;;2.45;;
38302;SDS011;24103;42.454;27.400;2023-07-20T07:58:14;5.55;;;1.40;;
38302;SDS011;24103;42.454;27.400;2023-07-20T08:00:39;5.53;;;1.73;;
38302;SDS011;24103;42.454;27.400;2023-07-20T08:03:08;7.40;;;1.90;;
38302;SDS011;24103;42.454;27.400;2023-07-20T08:05:34;3.53;;;1.73;;
38302;SDS011;24103;42.454;27.400;2023-07-20T08:08:02;3.33;;;1.60;;
38302;SDS011;24103;42.454;27.400;2023-07-20T08:10:31;3.08;;;1.63;;
38302;SDS011;24103;42.454;27.400;2023-07-20T08:12:56;6.03;;;1.73;;
38302;SDS011;24103;42.454;27.400;2023-07-20T08:15:22;10.02;;;1.98;;
38302;SDS011;24103;42.454;27.400;2023-07-20T08:17:48;5.47;;;1.98;;
38302;SDS011;24103;42.454;27.400;2023-07-20T08:20:15;3.78;;;1.85;;
38302;SDS011;24103;42.454;27.400;2023-07-20T08:22:41;6.05;;;1.83;;
38302;SDS011;24103;42.454;27.400;2023-07-20T08:25:07;5.90;;;1.80;;
38302;SDS011;24103;42.454;27.400;2023-07-20T08:27:33;3.80;;;1.77;;
38302;SDS011;24103;42.454;27.400;2023-07-20T08:29:59;3.85;;;2.05;;
38302;SDS011;24103;42.454;27.400;2023-07-20T08:32:25;6.78;;;2.30;;
38302;SDS011;24103;42.454;27.400;2023-07-20T08:34:51;5.05;;;1.88;;
38302;SDS011;24103;42.454;27.400;2023-07-20T08:37:16;4.15;;;1.88;;
38302;SDS011;24103;42.454;27.400;2023-07-20T08:39:42;2.38;;;1.63;;
38302;SDS011;24103;42.454;27.400;2023-07-20T08:42:07;5.32;;;1.95;;
38302;SDS011;24103;42.454;27.400;2023-07-20T08:44:36;4.78;;;2.30;;
38302;SDS011;24103;42.454;27.400;2023-07-20T08:47:03;7.57;;;2.25;;
38302;SDS011;24103;42.454;27.400;2023-07-20T08:49:31;5.07;;;2.35;;
38302;SDS011;24103;42.454;27.400;2023-07-20T08:51:57;3.83;;;2.00;;
38302;SDS011;24103;42.454;27.400;2023-07-20T08:54:24;9.02;;;2.20;;
38302;SDS011;24103;42.454;27.400;2023-07-20T08:56:52;5.78;;;2.30;;
38302;SDS011;24103;42.454;27.400;2023-07-20T08:59:19;6.45;;;2.15;;
38302;SDS011;24103;42.454;27.400;2023-07-20T09:01:48;7.20;;;2.15;;
38302;SDS011;24103;42.454;27.400;2023-07-20T09:04:15;6.63;;;2.35;;
38302;SDS011;24103;42.454;27.400;2023-07-20T09:06:41;9.85;;;2.72;;
38302;SDS011;24103;42.454;27.400;2023-07-20T09:09:07;2.95;;;1.95;;
38302;SDS011;24103;42.454;27.400;2023-07-20T09:11:33;4.15;;;2.38;;
38302;SDS011;24103;42.454;27.400;2023-07-20T09:14:02;5.07;;;2.20;;
38302;SDS011;24103;42.454;27.400;2023-07-20T09:16:31;3.63;;;2.22;;
38302;SDS011;24103;42.454;27.400;2023-07-20T09:18:57;3.28;;;2.03;;
38302;SDS011;24103;42.454;27.400;2023-07-20T09:21:23;3.60;;;2.15;;
38302;SDS011;24103;42.454;27.400;2023-07-20T09:23:56;6.28;;;2.63;;
38302;SDS011;24103;42.454;27.400;2023-07-20T09:26:22;5.82;;;2.20;;
38302;SDS011;24103;42.454;27.400;2023-07-20T09:28:48;3.75;;;2.35;;
38302;SDS011;24103;42.454;27.400;2023-07-20T09:31:17;8.35;;;2.30;;
38302;SDS011;24103;42.454;27.400;2023-07-20T09:33:44;8.18;;;2.30;;
38302;SDS011;24103;42.454;27.400;2023-07-20T09:36:11;4.72;;;2.42;;
38302;SDS011;24103;42.454;27.400;2023-07-20T09:38:37;7.47;;;2.35;;
38302;SDS011;24103;42.454;27.400;2023-07-20T09:41:05;4.97;;;2.33;;
38302;SDS011;24103;42.454;27.400;2023-07-20T09:43:34;4.22;;;2.20;;
38302;SDS011;24103;42.454;27.400;2023-07-20T09:46:00;3.25;;;2.00;;
38302;SDS011;24103;42.454;27.400;2023-07-20T09:48:26;2.67;;;2.00;;
38302;SDS011;24103;42.454;27.400;2023-07-20T09:50:52;2.83;;;2.03;;
38302;SDS011;24103;42.454;27.400;2023-07-20T09:53:18;3.75;;;2.40;;
38302;SDS011;24103;42.454;27.400;2023-07-20T09:55:45;2.33;;;2.05;;
38302;SDS011;24103;42.454;27.400;2023-07-20T09:58:12;3.17;;;2.20;;
38302;SDS011;24103;42.454;27.400;2023-07-20T10:00:39;8.75;;;2.10;;
38302;SDS011;24103;42.454;27.400;2023-07-20T10:03:08;5.78;;;2.72;;
38302;SDS011;24103;42.454;27.400;2023-07-20T10:05:37;4.18;;;2.10;;
38302;SDS011;24103;42.454;27.400;2023-07-20T10:08:09;6.57;;;2.03;;
38302;SDS011;24103;42.454;27.400;2023-07-20T10:10:37;4.43;;;2.60;;
38302;SDS011;24103;42.454;27.400;2023-07-20T10:13:05;6.85;;;2.65;;
38302;SDS011;24103;42.454;27.400;2023-07-20T10:15:43;2.28;;;2.05;;
38302;SDS011;24103;42.454;27.400;2023-07-20T10:18:12;4.40;;;2.33;;
38302;SDS011;24103;42.454;27.400;2023-07-20T10:20:43;5.60;;;2.22;;
38302;SDS011;24103;42.454;27.400;2023-07-20T10:23:11;4.25;;;2.13;;
38302;SDS011;24103;42.454;27.400;2023-07-20T10:25:37;6.10;;;2.20;;
38302;SDS011;24103;42.454;27.400;2023-07-20T10:28:06;3.17;;;2.40;;
38302;SDS011;24103;42.454;27.400;2023-07-20T10:30:35;4.78;;;2.50;;
38302;SDS011;24103;42.454;27.400;2023-07-20T10:33:02;5.72;;;2.30;;
38302;SDS011;24103;42.454;27.400;2023-07-20T10:35:29;5.40;;;2.65;;
38302;SDS011;24103;42.454;27.400;2023-07-20T10:38:00;6.55;;;2.63;;
38302;SDS011;24103;42.454;27.400;2023-07-20T10:42:59;7.07;;;2.63;;
38302;SDS011;24103;42.454;27.400;2023-07-20T10:45:42;6.30;;;2.33;;
38302;SDS011;24103;42.454;27.400;2023-07-20T10:48:13;3.47;;;2.22;;
38302;SDS011;24103;42.454;27.400;2023-07-20T10:50:41;4.28;;;2.40;;
38302;SDS011;24103;42.454;27.400;2023-07-20T10:53:15;6.07;;;2.90;;
38302;SDS011;24103;42.454;27.400;2023-07-20T10:55:44;3.65;;;3.10;;
38302;SDS011;24103;42.454;27.400;2023-07-20T10:58:12;5.10;;;2.83;;
38302;SDS011;24103;42.454;27.400;2023-07-20T11:00:58;5.50;;;2.60;;
38302;SDS011;24103;42.454;27.400;2023-07-20T11:03:27;5.63;;;2.33;;
38302;SDS011;24103;42.454;27.400;2023-07-20T11:05:57;4.70;;;2.50;;
38302;SDS011;24103;42.454;27.400;2023-07-20T11:08:42;5.65;;;2.42;;
38302;SDS011;24103;42.454;27.400;2023-07-20T11:11:27;7.13;;;2.88;;
38302;SDS011;24103;42.454;27.400;2023-07-20T11:16:34;11.48;;;2.72;;
38302;SDS011;24103;42.454;27.400;2023-07-20T11:19:22;11.77;;;2.85;;
38302;SDS011;24103;42.454;27.400;2023-07-20T11:21:50;9.80;;;3.50;;
38302;SDS011;24103;42.454;27.400;2023-07-20T11:24:17;7.07;;;2.58;;
38302;SDS011;24103;42.454;27.400;2023-07-20T11:26:47;6.45;;;2.53;;
38302;SDS011;24103;42.454;27.400;2023-07-20T11:29:17;6.95;;;2.45;;
38302;SDS011;24103;42.454;27.400;2023-07-20T11:31:45;3.33;;;2.60;;
38302;SDS011;24103;42.454;27.400;2023-07-20T11:34:12;3.45;;;1.98;;
38302;SDS011;24103;42.454;27.400;2023-07-20T11:36:42;6.68;;;2.45;;
38302;SDS011;24103;42.454;27.400;2023-07-20T11:41:49;3.63;;;2.17;;
38302;SDS011;24103;42.454;27.400;2023-07-20T11:44:16;7.45;;;2.47;;
38302;SDS011;24103;42.454;27.400;2023-07-20T11:46:59;3.10;;;1.98;;
38302;SDS011;24103;42.454;27.400;2023-07-20T11:49:29;3.13;;;2.47;;
38302;SDS011;24103;42.454;27.400;2023-07-20T11:52:00;4.88;;;2.17;;
38302;SDS011;24103;42.454;27.400;2023-07-20T11:54:26;6.65;;;2.25;;
38302;SDS011;24103;42.454;27.400;2023-07-20T11:56:55;5.65;;;2.25;;
38302;SDS011;24103;42.454;27.400;2023-07-20T11:59:21;2.92;;;2.30;;
38302;SDS011;24103;42.454;27.400;2023-07-20T12:01:46;6.97;;;2.33;;
38302;SDS011;24103;42.454;27.400;2023-07-20T12:04:12;4.72;;;2.38;;
38302;SDS011;24103;42.454;27.400;2023-07-20T12:06:38;6.72;;;2.58;;
38302;SDS011;24103;42.454;27.400;2023-07-20T12:09:04;5.55;;;2.25;;
38302;SDS011;24103;42.454;27.400;2023-07-20T12:11:39;7.18;;;2.55;;
38302;SDS011;24103;42.454;27.400;2023-07-20T12:14:08;5.68;;;2.03;;
38302;SDS011;24103;42.454;27.400;2023-07-20T12:16:34;4.40;;;2.10;;
38302;SDS011;24103;42.454;27.400;2023-07-20T12:21:30;2.67;;;2.47;;
38302;SDS011;24103;42.454;27.400;2023-07-20T12:23:56;3.72;;;2.25;;
38302;SDS011;24103;42.454;27.400;2023-07-20T12:26:23;3.47;;;2.33;;
38302;SDS011;24103;42.454;27.400;2023-07-20T12:28:50;3.15;;;2.45;;
38302;SDS011;24103;42.454;27.400;2023-07-20T12:31:16;5.25;;;2.25;;
38302;SDS011;24103;42.454;27.400;2023-07-20T12:33:42;7.43;;;2.83;;
38302;SDS011;24103;42.454;27.400;2023-07-20T12:36:08;4.95;;;2.28;;
38302;SDS011;24103;42.454;27.400;2023-07-20T12:38:35;5.20;;;2.00;;
38302;SDS011;24103;42.454;27.400;2023-07-20T12:41:01;4.57;;;2.20;;
38302;SDS011;24103;42.454;27.400;2023-07-20T12:43:27;5.93;;;2.42;;
38302;SDS011;24103;42.454;27.400;2023-07-20T12:45:54;8.40;;;2.80;;
38302;SDS011;24103;42.454;27.400;2023-07-20T12:48:20;6.10;;;2.40;;
38302;SDS011;24103;42.454;27.400;2023-07-20T12:50:46;4.82;;;2.45;;
38302;SDS011;24103;42.454;27.400;2023-07-20T12:53:12;4.57;;;2.17;;
38302;SDS011;24103;42.454;27.400;2023-07-20T12:55:37;5.05;;;2.65;;
38302;SDS011;24103;42.454;27.400;2023-07-20T12:58:04;4.57;;;2.58;;
38302;SDS011;24103;42.454;27.400;2023-07-20T13:00:30;4.60;;;2.28;;
38302;SDS011;24103;42.454;27.400;2023-07-20T13:02:55;2.80;;;2.30;;
38302;SDS011;24103;42.454;27.400;2023-07-20T13:05:21;6.70;;;2.40;;
38302;SDS011;24103;42.454;27.400;2023-07-20T13:07:46;4.78;;;2.40;;
38302;SDS011;24103;42.454;27.400;2023-07-20T13:10:12;8.27;;;2.40;;
38302;SDS011;24103;42.454;27.400;2023-07-20T13:12:38;8.18;;;2.92;;
38302;SDS011;24103;42.454;27.400;2023-07-20T13:15:04;4.72;;;2.47;;
38302;SDS011;24103;42.454;27.400;2023-07-20T13:17:35;7.78;;;2.47;;
38302;SDS011;24103;42.454;27.400;2023-07-20T13:20:05;5.70;;;2.60;;
38302;SDS011;24103;42.454;27.400;2023-07-20T13:24:59;6.10;;;2.78;;
38302;SDS011;24103;42.454;27.400;2023-07-20T13:27:25;6.43;;;2.45;;
38302;SDS011;24103;42.454;27.400;2023-07-20T13:29:51;7.78;;;3.40;;
38302;SDS011;24103;42.454;27.400;2023-07-20T13:32:17;5.25;;;2.80;;
38302;SDS011;24103;42.454;27.400;2023-07-20T13:34:45;6.47;;;2.50;;
38302;SDS011;24103;42.454;27.400;2023-07-20T13:37:11;9.20;;;2.60;;
38302;SDS011;24103;42.454;27.400;2023-07-20T13:39:37;7.30;;;2.45;;
38302;SDS011;24103;42.454;27.400;2023-07-20T13:42:03;6.30;;;2.80;;
38302;SDS011;24103;42.454;27.400;2023-07-20T13:44:33;8.15;;;3.08;;
38302;SDS011;24103;42.454;27.400;2023-07-20T13:46:59;6.80;;;3.03;;
38302;SDS011;24103;42.454;27.400;2023-07-20T13:49:25;7.80;;;2.72;;
38302;SDS011;24103;42.454;27.400;2023-07-20T13:51:51;13.27;;;3.08;;
38302;SDS011;24103;42.454;27.400;2023-07-20T13:54:17;5.45;;;2.75;;
38302;SDS011;24103;42.454;27.400;2023-07-20T13:56:43;8.90;;;3.17;;
38302;SDS011;24103;42.454;27.400;2023-07-20T13:59:08;2.40;;;2.17;;
38302;SDS011;24103;42.454;27.400;2023-07-20T14:01:34;5.80;;;2.70;;
38302;SDS011;24103;42.454;27.400;2023-07-20T14:04:00;6.40;;;2.40;;
38302;SDS011;24103;42.454;27.400;2023-07-20T14:06:29;10.38;;;2.85;;
38302;SDS011;24103;42.454;27.400;2023-07-20T14:08:56;10.38;;;2.92;;
38302;SDS011;24103;42.454;27.400;2023-07-20T14:11:22;6.22;;;2.80;;
38302;SDS011;24103;42.454;27.400;2023-07-20T14:13:48;7.47;;;2.80;;
38302;SDS011;24103;42.454;27.400;2023-07-20T14:16:15;10.63;;;3.15;;
38302;SDS011;24103;42.454;27.400;2023-07-20T14:18:40;5.40;;;2.88;;
38302;SDS011;24103;42.454;27.400;2023-07-20T14:21:06;6.38;;;2.63;;
38302;SDS011;24103;42.454;27.400;2023-07-20T14:23:32;3.97;;;1.92;;
38302;SDS011;24103;42.454;27.400;2023-07-20T14:25:57;3.53;;;1.92;;
38302;SDS011;24103;42.454;27.400;2023-07-20T14:28:24;8.93;;;2.90;;
38302;SDS011;24103;42.454;27.400;2023-07-20T14:30:50;4.25;;;2.45;;
38302;SDS011;24103;42.454;27.400;2023-07-20T14:33:16;4.22;;;2.17;;
38302;SDS011;24103;42.454;27.400;2023-07-20T14:35:41;4.68;;;2.30;;
38302;SDS011;24103;42.454;27.400;2023-07-20T14:38:08;6.72;;;2.58;;
38302;SDS011;24103;42.454;27.400;2023-07-20T14:40:34;3.05;;;2.33;;
38302;SDS011;24103;42.454;27.400;2023-07-20T14:42:59;5.32;;;2.85;;
38302;SDS011;24103;42.454;27.400;2023-07-20T14:45:28;2.72;;;2.08;;
38302;SDS011;24103;42.454;27.400;2023-07-20T14:47:53;6.03;;;2.30;;
38302;SDS011;24103;42.454;27.400;2023-07-20T14:50:19;2.90;;;2.25;;
38302;SDS011;24103;42.454;27.400;2023-07-20T14:52:45;3.05;;;2.00;;